Time;durP1;ratioP1;P1;durP2;ratioP2;P2;SDS_P1;SDS_P2;PMS_P1;PMS_P2;Temp;Humidity;BMP_temperature;BMP_pressure;BME280_temperature;BME280_humidity;BME280_pressure;Samples;Min_cycle;Max_cycle;Signal;HPM_P1;HPM_P2
2023/10/10 00:00:47;;;;;;;3.83;2.20;;;;;;;;;;4974415;28;20509;-71
2023/10/10 00:03:12;;;;;;;3.42;2.10;;;;;;;;;;4966819;28;20370;-72
2023/10/10 00:05:39;;;;;;;4.65;2.10;;;;;;;;;;4964013;28;20058;-71
2023/10/10 00:08:05;;;;;;;5.20;2.20;;;;;;;;;;4985619;28;20038;-71
2023/10/10 00:10:31;;;;;;;4.88;2.28;;;;;;;;;;4984691;28;20031;-72
2023/10/10 00:12:57;;;;;;;3.00;1.50;;;;;;;;;;4951870;28;20428;-72
2023/10/10 00:15:26;;;;;;;3.42;2.00;;;;;;;;;;4969230;28;20049;-72
2023/10/10 00:17:55;;;;;;;4.07;2.58;;;;;;;;;;4986154;28;20043;-71
2023/10/10 00:20:24;;;;;;;3.40;2.17;;;;;;;;;;4978355;28;20061;-71
2023/10/10 00:22:58;;;;;;;4.53;2.38;;;;;;;;;;4975100;28;20112;-71
2023/10/10 00:25:30;;;;;;;3.08;1.67;;;;;;;;;;4979925;28;20057;-71
2023/10/10 00:27:59;;;;;;;5.13;2.22;;;;;;;;;;4984068;28;20106;-72
2023/10/10 00:30:28;;;;;;;3.92;2.22;;;;;;;;;;4983908;28;20030;-71
2023/10/10 00:32:53;;;;;;;4.40;2.13;;;;;;;;;;4972418;28;20018;-72
2023/10/10 00:35:18;;;;;;;4.43;2.07;;;;;;;;;;4976799;28;20054;-72
2023/10/10 00:37:45;;;;;;;3.87;1.90;;;;;;;;;;4963717;28;20281;-72
2023/10/10 00:40:11;;;;;;;3.50;1.92;;;;;;;;;;4985879;28;20288;-71
2023/10/10 00:42:37;;;;;;;4.32;2.63;;;;;;;;;;4972636;28;20035;-72
2023/10/10 00:45:04;;;;;;;3.50;2.38;;;;;;;;;;4986014;28;20203;-72
2023/10/10 00:47:31;;;;;;;5.18;2.38;;;;;;;;;;4985411;28;20046;-72
2023/10/10 00:49:57;;;;;;;3.67;1.80;;;;;;;;;;4984615;28;20054;-72
2023/10/10 00:52:22;;;;;;;3.67;1.95;;;;;;;;;;4962857;28;20109;-72
2023/10/10 00:54:49;;;;;;;4.32;2.25;;;;;;;;;;4973150;28;20512;-72
2023/10/10 00:57:16;;;;;;;5.05;1.95;;;;;;;;;;4966118;28;20034;-72
2023/10/10 00:59:45;;;;;;;5.40;2.38;;;;;;;;;;4982976;28;20043;-72
2023/10/10 01:02:11;;;;;;;3.42;1.73;;;;;;;;;;4976520;28;20587;-72
2023/10/10 01:04:48;;;;;;;3.85;1.95;;;;;;;;;;4974264;28;20038;-72
2023/10/10 01:07:18;;;;;;;4.20;2.30;;;;;;;;;;4971494;28;20031;-72
2023/10/10 01:09:56;;;;;;;3.28;1.98;;;;;;;;;;4973404;28;20031;-72
2023/10/10 01:12:22;;;;;;;4.60;2.38;;;;;;;;;;4984706;28;20514;-72
2023/10/10 01:14:54;;;;;;;4.78;2.08;;;;;;;;;;4979534;28;20039;-72
2023/10/10 01:17:19;;;;;;;4.15;2.10;;;;;;;;;;4984237;28;20109;-72
2023/10/10 01:19:45;;;;;;;4.00;2.10;;;;;;;;;;4971872;28;20082;-72
2023/10/10 01:22:22;;;;;;;3.55;2.10;;;;;;;;;;4955411;28;20039;-72
2023/10/10 01:24:51;;;;;;;5.25;2.10;;;;;;;;;;4970809;28;20042;-72
2023/10/10 01:27:21;;;;;;;4.35;2.60;;;;;;;;;;4956657;28;20176;-72
2023/10/10 01:30:17;;;;;;;5.15;2.20;;;;;;;;;;4972786;28;20038;-72
2023/10/10 01:32:39;;;;;;;3.70;2.13;;;;;;;;;;4967715;28;20058;-72
2023/10/10 01:35:15;;;;;;;4.18;1.83;;;;;;;;;;4993626;28;20038;-72
2023/10/10 01:37:41;;;;;;;3.33;2.00;;;;;;;;;;4966322;28;20050;-72
2023/10/10 01:40:16;;;;;;;3.13;2.03;;;;;;;;;;4974526;28;20050;-72
2023/10/10 01:42:51;;;;;;;3.65;2.00;;;;;;;;;;4983321;28;20039;-72
2023/10/10 01:45:18;;;;;;;4.32;2.55;;;;;;;;;;4979227;28;20193;-72
2023/10/10 01:47:56;;;;;;;3.72;1.77;;;;;;;;;;4957981;28;20027;-72
2023/10/10 01:50:21;;;;;;;3.85;2.40;;;;;;;;;;4964469;28;20031;-72
2023/10/10 01:52:46;;;;;;;3.53;1.80;;;;;;;;;;4954865;28;20050;-72
2023/10/10 01:55:12;;;;;;;4.23;2.07;;;;;;;;;;4967868;28;20046;-72
2023/10/10 01:57:37;;;;;;;3.67;2.13;;;;;;;;;;4984878;28;20799;-72
2023/10/10 02:00:19;;;;;;;5.72;1.83;;;;;;;;;;4974587;28;20372;-72
2023/10/10 02:02:45;;;;;;;5.30;2.30;;;;;;;;;;4975720;28;20516;-72
2023/10/10 02:05:12;;;;;;;3.45;1.85;;;;;;;;;;4984894;28;20476;-72
2023/10/10 02:07:39;;;;;;;4.63;2.25;;;;;;;;;;4983285;28;20520;-72
2023/10/10 02:10:13;;;;;;;3.45;2.00;;;;;;;;;;4978538;28;20038;-72
2023/10/10 02:12:44;;;;;;;3.45;1.85;;;;;;;;;;4984447;28;20038;-72
2023/10/10 02:15:12;;;;;;;3.67;2.00;;;;;;;;;;4956780;28;20137;-72
2023/10/10 02:17:50;;;;;;;5.60;2.30;;;;;;;;;;4941004;28;20582;-72
2023/10/10 02:20:33;;;;;;;3.97;2.20;;;;;;;;;;4942696;28;20046;-72
2023/10/10 02:23:09;;;;;;;4.50;2.05;;;;;;;;;;4967586;28;20187;-72
2023/10/10 02:28:02;;;;;;;6.07;2.20;;;;;;;;;;4968872;28;20437;-72
2023/10/10 02:30:38;;;;;;;3.70;2.13;;;;;;;;;;4970790;28;20027;-72
2023/10/10 02:35:55;;;;;;;4.57;1.90;;;;;;;;;;4983159;28;20393;-72
2023/10/10 02:38:22;;;;;;;3.83;2.05;;;;;;;;;;4980360;28;20701;-72
2023/10/10 02:40:52;;;;;;;3.85;1.83;;;;;;;;;;4982005;28;20033;-72
2023/10/10 02:43:33;;;;;;;3.20;1.90;;;;;;;;;;4976434;28;20103;-72
2023/10/10 02:45:59;;;;;;;4.00;2.00;;;;;;;;;;4985260;28;20053;-72
2023/10/10 02:48:26;;;;;;;5.35;2.10;;;;;;;;;;4961981;28;20140;-72
2023/10/10 02:50:52;;;;;;;3.97;2.00;;;;;;;;;;4988022;28;20568;-72
2023/10/10 02:53:19;;;;;;;3.88;2.22;;;;;;;;;;4988136;28;20221;-72
2023/10/10 02:55:51;;;;;;;3.63;1.95;;;;;;;;;;4983714;28;20529;-72
2023/10/10 02:58:22;;;;;;;4.00;1.77;;;;;;;;;;4968454;28;20094;-72
2023/10/10 03:00:51;;;;;;;4.43;2.10;;;;;;;;;;4969960;28;20062;-71
2023/10/10 03:03:19;;;;;;;3.88;1.80;;;;;;;;;;4977127;28;20041;-72
2023/10/10 03:05:51;;;;;;;3.35;1.70;;;;;;;;;;4986541;28;20046;-72
2023/10/10 03:08:51;;;;;;;3.88;1.80;;;;;;;;;;4978189;28;20030;-73
2023/10/10 03:11:02;;;;;;;4.85;2.10;;;;;;;;;;4978410;28;20073;-71
2023/10/10 03:13:30;;;;;;;3.17;1.88;;;;;;;;;;4981169;28;20022;-71
2023/10/10 03:15:56;;;;;;;5.75;2.05;;;;;;;;;;4994064;28;20080;-72
2023/10/10 03:18:29;;;;;;;5.15;1.80;;;;;;;;;;4980579;28;20050;-71
2023/10/10 03:21:12;;;;;;;3.40;1.88;;;;;;;;;;4981129;28;20031;-72
2023/10/10 03:23:55;;;;;;;4.88;1.80;;;;;;;;;;4950506;28;20049;-71
2023/10/10 03:26:51;;;;;;;3.33;1.98;;;;;;;;;;4969249;28;20082;-71
2023/10/10 03:29:11;;;;;;;3.53;1.90;;;;;;;;;;4986527;28;20026;-71
2023/10/10 03:31:46;;;;;;;4.18;2.00;;;;;;;;;;4952107;28;20031;-72
2023/10/10 03:37:03;;;;;;;4.90;1.85;;;;;;;;;;4992106;28;20045;-71
2023/10/10 03:39:50;;;;;;;3.90;1.90;;;;;;;;;;4973655;28;20031;-72
2023/10/10 05:23:30;;;;;;;2.28;1.30;;;;;;;;;;4976623;28;20464;-73
2023/10/10 05:25:55;;;;;;;3.95;1.92;;;;;;;;;;4955910;28;20050;-74
2023/10/10 05:28:22;;;;;;;2.85;1.40;;;;;;;;;;4969205;28;20027;-74
2023/10/10 05:30:47;;;;;;;3.80;1.75;;;;;;;;;;4971967;28;20049;-82
2023/10/10 05:33:12;;;;;;;3.88;1.77;;;;;;;;;;4959090;28;20030;-73
2023/10/10 05:35:38;;;;;;;2.42;1.30;;;;;;;;;;4969209;28;20517;-72
2023/10/10 05:38:10;;;;;;;4.22;1.60;;;;;;;;;;4956287;28;20027;-74
2023/10/10 05:40:38;;;;;;;4.68;1.80;;;;;;;;;;4960984;28;20538;-72
2023/10/10 05:43:04;;;;;;;3.50;1.73;;;;;;;;;;4974459;28;20097;-72
2023/10/10 05:45:29;;;;;;;3.25;1.77;;;;;;;;;;4973308;28;20508;-71
2023/10/10 05:47:55;;;;;;;3.28;1.52;;;;;;;;;;4973876;28;21448;-73
2023/10/10 05:50:22;;;;;;;3.10;1.70;;;;;;;;;;4974540;28;20054;-72
2023/10/10 05:52:48;;;;;;;5.30;1.90;;;;;;;;;;4966746;28;20531;-74
2023/10/10 05:55:14;;;;;;;3.58;1.80;;;;;;;;;;4955085;28;20117;-71
2023/10/10 05:57:40;;;;;;;6.75;2.00;;;;;;;;;;4957276;28;20066;-76
2023/10/10 06:00:12;;;;;;;4.40;2.05;;;;;;;;;;4956833;28;20027;-74
2023/10/10 06:02:38;;;;;;;3.65;1.80;;;;;;;;;;4958484;28;20043;-72
2023/10/10 06:05:06;;;;;;;5.55;1.75;;;;;;;;;;4938596;28;20031;-72
2023/10/10 06:07:32;;;;;;;6.93;1.90;;;;;;;;;;4955170;28;20063;-71
2023/10/10 06:09:58;;;;;;;5.53;2.03;;;;;;;;;;4951965;28;20058;-73
2023/10/10 06:12:24;;;;;;;4.50;2.07;;;;;;;;;;4953398;28;20132;-73
2023/10/10 06:14:49;;;;;;;5.57;1.80;;;;;;;;;;4953167;28;20306;-74
2023/10/10 06:17:15;;;;;;;3.50;1.63;;;;;;;;;;4950648;28;20034;-74
2023/10/10 06:19:45;;;;;;;5.95;2.40;;;;;;;;;;4954858;28;20709;-73
2023/10/10 06:22:14;;;;;;;4.22;1.73;;;;;;;;;;4951716;28;20043;-73
2023/10/10 06:24:40;;;;;;;4.70;1.85;;;;;;;;;;4950822;28;20054;-74
2023/10/10 06:27:08;;;;;;;6.22;2.30;;;;;;;;;;4953454;28;20041;-74
2023/10/10 06:29:34;;;;;;;5.50;2.10;;;;;;;;;;4954497;28;20053;-79
2023/10/10 06:31:59;;;;;;;4.90;2.38;;;;;;;;;;4952838;28;20035;-74
2023/10/10 06:34:29;;;;;;;4.15;1.95;;;;;;;;;;4953662;28;20991;-74
2023/10/10 06:37:07;;;;;;;6.13;2.10;;;;;;;;;;4953910;28;20070;-72
2023/10/10 06:39:32;;;;;;;6.57;2.00;;;;;;;;;;4956297;28;20687;-74
2023/10/10 06:41:58;;;;;;;6.13;2.10;;;;;;;;;;4969197;28;20038;-74
2023/10/10 06:44:34;;;;;;;8.13;2.20;;;;;;;;;;4953926;28;20043;-75
2023/10/10 06:47:00;;;;;;;5.13;2.17;;;;;;;;;;4955117;28;20042;-72
2023/10/10 06:49:25;;;;;;;5.32;2.15;;;;;;;;;;4955130;28;20042;-72
2023/10/10 06:51:55;;;;;;;4.65;2.30;;;;;;;;;;4952402;28;20286;-72
2023/10/10 06:54:27;;;;;;;7.38;2.20;;;;;;;;;;4954162;28;20665;-73
2023/10/10 06:59:27;;;;;;;5.50;2.30;;;;;;;;;;4953359;28;20438;-70
2023/10/10 07:01:53;;;;;;;6.93;2.28;;;;;;;;;;4953333;28;20029;-71
2023/10/10 07:04:19;;;;;;;6.13;2.15;;;;;;;;;;4953887;28;20027;-70
2023/10/10 07:06:47;;;;;;;5.97;2.40;;;;;;;;;;4955823;28;20050;-71
2023/10/10 07:09:37;;;;;;;7.28;2.35;;;;;;;;;;4954597;28;20106;-70
2023/10/10 07:12:09;;;;;;;7.25;2.28;;;;;;;;;;4959241;28;20038;-70
2023/10/10 07:14:40;;;;;;;8.48;2.45;;;;;;;;;;4970697;28;20031;-71
2023/10/10 07:17:11;;;;;;;7.40;2.38;;;;;;;;;;4970996;28;20038;-71
2023/10/10 07:19:54;;;;;;;6.00;2.30;;;;;;;;;;4964972;28;20348;-74
2023/10/10 07:22:21;;;;;;;6.47;2.35;;;;;;;;;;4956077;28;20058;-78
2023/10/10 07:24:47;;;;;;;7.22;2.50;;;;;;;;;;4956454;28;20536;-75
2023/10/10 07:27:12;;;;;;;5.53;2.30;;;;;;;;;;4957800;28;20042;-74
2023/10/10 07:32:18;;;;;;;6.68;2.42;;;;;;;;;;4961059;28;20039;-75
2023/10/10 07:34:49;;;;;;;7.15;2.13;;;;;;;;;;4944977;28;20072;-74
2023/10/10 07:37:15;;;;;;;10.52;2.72;;;;;;;;;;4961286;28;20034;-74
2023/10/10 07:39:55;;;;;;;10.38;2.58;;;;;;;;;;4965759;28;20106;-75
2023/10/10 07:42:27;;;;;;;7.63;2.65;;;;;;;;;;4963610;28;20057;-74
2023/10/10 07:44:54;;;;;;;12.77;3.05;;;;;;;;;;4963943;28;20658;-75
2023/10/10 07:47:25;;;;;;;8.52;2.83;;;;;;;;;;4960797;28;20058;-75
2023/10/10 07:49:51;;;;;;;8.48;2.88;;;;;;;;;;4965389;28;20043;-75
2023/10/10 07:52:20;;;;;;;17.63;3.15;;;;;;;;;;4965808;28;20041;-75
2023/10/10 07:54:46;;;;;;;7.22;2.72;;;;;;;;;;4964460;28;20125;-74
2023/10/10 07:57:17;;;;;;;6.97;2.40;;;;;;;;;;4968204;28;20027;-74
2023/10/10 07:59:43;;;;;;;7.45;2.85;;;;;;;;;;4985702;28;20545;-75
2023/10/10 08:04:55;;;;;;;7.97;2.88;;;;;;;;;;4983778;28;20516;-74
2023/10/10 08:07:20;;;;;;;8.20;2.50;;;;;;;;;;4985883;28;20101;-74
2023/10/10 08:09:46;;;;;;;7.47;2.70;;;;;;;;;;4985450;28;20303;-76
2023/10/10 08:12:23;;;;;;;8.13;2.97;;;;;;;;;;4970623;28;20030;-74
2023/10/10 08:14:48;;;;;;;8.02;3.03;;;;;;;;;;4981014;28;20130;-74
2023/10/10 08:17:19;;;;;;;10.18;2.88;;;;;;;;;;4984493;28;20432;-74
2023/10/10 08:19:50;;;;;;;9.70;2.92;;;;;;;;;;4986853;28;20407;-74
2023/10/10 08:25:00;;;;;;;10.73;2.88;;;;;;;;;;4971056;28;20114;-74
2023/10/10 08:27:26;;;;;;;10.60;3.07;;;;;;;;;;4985499;28;20034;-75
2023/10/10 08:29:51;;;;;;;8.98;2.63;;;;;;;;;;4989155;28;20385;-74
2023/10/10 08:32:16;;;;;;;9.57;3.03;;;;;;;;;;4986980;28;20039;-73
2023/10/10 08:34:42;;;;;;;9.85;3.05;;;;;;;;;;4974965;28;20453;-73
2023/10/10 08:37:09;;;;;;;9.27;2.78;;;;;;;;;;4967932;28;20031;-76
2023/10/10 08:39:39;;;;;;;8.93;3.28;;;;;;;;;;4966207;28;20117;-76
2023/10/10 08:42:14;;;;;;;;;;;;;;;;;;4978658;28;20084;-70
2023/10/10 08:44:40;;;;;;;9.40;2.95;;;;;;;;;;4981254;28;20255;-71
2023/10/10 08:47:06;;;;;;;9.80;3.00;;;;;;;;;;4979540;28;20468;-70
2023/10/10 08:49:31;;;;;;;9.88;3.45;;;;;;;;;;4974082;28;20051;-71
2023/10/10 08:52:00;;;;;;;10.60;3.17;;;;;;;;;;4973409;28;20433;-71
2023/10/10 08:54:26;;;;;;;8.55;3.08;;;;;;;;;;4973837;28;20815;-73
2023/10/10 08:57:00;;;;;;;8.70;3.28;;;;;;;;;;4965118;28;20148;-72
2023/10/10 08:59:28;;;;;;;10.65;3.30;;;;;;;;;;4955326;28;20096;-73
2023/10/10 09:01:55;;;;;;;12.30;3.63;;;;;;;;;;4940734;28;20038;-73
2023/10/10 09:04:20;;;;;;;10.75;3.30;;;;;;;;;;4973251;28;20120;-71
2023/10/10 09:07:00;;;;;;;9.80;3.65;;;;;;;;;;4956088;28;20047;-73
2023/10/10 09:09:35;;;;;;;8.77;3.30;;;;;;;;;;4956891;28;20529;-69
2023/10/10 09:12:03;;;;;;;8.02;3.20;;;;;;;;;;4955124;28;20844;-69
2023/10/10 09:14:50;;;;;;;9.32;3.22;;;;;;;;;;4954865;28;20043;-72
2023/10/10 09:17:28;;;;;;;7.38;2.92;;;;;;;;;;4970621;28;20509;-72
2023/10/10 09:19:53;;;;;;;6.97;2.70;;;;;;;;;;4954843;28;20034;-71
2023/10/10 09:22:34;;;;;;;7.85;3.05;;;;;;;;;;4953706;28;20644;-74
2023/10/10 09:25:06;;;;;;;10.80;3.50;;;;;;;;;;4960445;28;20603;-72
2023/10/10 09:27:35;;;;;;;9.45;3.30;;;;;;;;;;4973722;28;20037;-72
2023/10/10 09:30:09;;;;;;;10.10;3.40;;;;;;;;;;4973153;28;20030;-72
2023/10/10 09:32:42;;;;;;;7.03;2.97;;;;;;;;;;4973375;28;20085;-71
2023/10/10 09:35:08;;;;;;;5.80;2.60;;;;;;;;;;4958261;28;20038;-71
2023/10/10 09:37:38;;;;;;;9.55;3.20;;;;;;;;;;4973958;28;20056;-73
2023/10/10 09:40:07;;;;;;;6.53;2.90;;;;;;;;;;4960722;28;20038;-73
2023/10/10 09:46:10;;;;;;;7.40;2.72;;;;;;;;;;4970611;28;20049;-75
2023/10/10 09:48:59;;;;;;;7.50;2.67;;;;;;;;;;4964631;28;20038;-72
2023/10/10 09:54:16;;;;;;;6.38;2.53;;;;;;;;;;4959368;28;20054;-72
2023/10/10 09:56:45;;;;;;;6.13;2.30;;;;;;;;;;4974291;28;20065;-76
2023/10/10 09:59:11;;;;;;;6.15;2.28;;;;;;;;;;4956313;28;20045;-71
2023/10/10 10:01:44;;;;;;;7.63;2.30;;;;;;;;;;4971752;28;20038;-72
2023/10/10 10:04:12;;;;;;;5.63;2.03;;;;;;;;;;4971889;28;20501;-72
2023/10/10 10:06:51;;;;;;;4.82;2.33;;;;;;;;;;4970874;28;20050;-74
2023/10/10 10:09:37;;;;;;;7.60;2.30;;;;;;;;;;4973106;28;20031;-71
2023/10/10 10:12:23;;;;;;;6.63;2.22;;;;;;;;;;4957669;28;20122;-72
2023/10/10 10:14:49;;;;;;;5.70;2.42;;;;;;;;;;4951389;28;20031;-72
2023/10/10 10:17:18;;;;;;;6.78;2.40;;;;;;;;;;4972953;28;20062;-71
2023/10/10 10:19:45;;;;;;;4.53;2.53;;;;;;;;;;4972984;28;20130;-75
2023/10/10 10:22:14;;;;;;;7.07;2.00;;;;;;;;;;4972659;28;20517;-71
2023/10/10 10:24:44;;;;;;;5.63;2.50;;;;;;;;;;4970945;28;20039;-71
2023/10/10 10:27:24;;;;;;;6.95;2.47;;;;;;;;;;4972555;28;20085;-71
2023/10/10 10:30:31;;;;;;;9.45;2.08;;;;;;;;;;4973055;28;20126;-72
2023/10/10 10:32:58;;;;;;;6.25;2.00;;;;;;;;;;4974419;28;20132;-72
2023/10/10 10:35:24;;;;;;;5.80;2.00;;;;;;;;;;4971751;28;20797;-73
2023/10/10 10:37:58;;;;;;;5.97;1.95;;;;;;;;;;4974261;28;20574;-73
2023/10/10 10:40:42;;;;;;;5.70;1.58;;;;;;;;;;4974189;28;20059;-73
2023/10/10 10:43:16;;;;;;;7.05;2.10;;;;;;;;;;4963342;28;20042;-71
2023/10/10 10:46:11;;;;;;;6.70;2.38;;;;;;;;;;4955266;28;20586;-71
2023/10/10 10:48:38;;;;;;;5.40;2.17;;;;;;;;;;4954952;28;20043;-72
2023/10/10 10:51:22;;;;;;;5.30;1.80;;;;;;;;;;4958347;28;20034;-72
2023/10/10 10:53:50;;;;;;;5.78;2.17;;;;;;;;;;4980208;28;20054;-71
2023/10/10 11:01:26;;;;;;;6.13;1.80;;;;;;;;;;4962897;28;20045;-71
2023/10/10 11:03:52;;;;;;;5.90;2.13;;;;;;;;;;4940565;28;20847;-72
2023/10/10 11:06:20;;;;;;;6.13;1.85;;;;;;;;;;4941803;28;20087;-70
2023/10/10 11:16:46;;;;;;;6.45;1.92;;;;;;;;;;4959953;28;20043;-71
2023/10/10 11:19:46;;;;;;;4.07;1.65;;;;;;;;;;4966805;28;20049;-71
2023/10/10 11:25:04;;;;;;;5.75;2.30;;;;;;;;;;4945932;28;20528;-71
2023/10/10 11:27:32;;;;;;;5.78;2.20;;;;;;;;;;4975956;28;20070;-72
2023/10/10 11:30:00;;;;;;;4.93;1.98;;;;;;;;;;4976415;28;20126;-76
2023/10/10 11:32:29;;;;;;;6.32;1.92;;;;;;;;;;4972906;28;20105;-76
2023/10/10 11:35:17;;;;;;;7.32;1.77;;;;;;;;;;4956284;28;20109;-77
2023/10/10 11:37:48;;;;;;;5.25;2.05;;;;;;;;;;4960095;28;20066;-76
2023/10/10 11:40:30;;;;;;;5.75;2.03;;;;;;;;;;4954988;28;20031;-76
2023/10/10 11:42:59;;;;;;;3.45;2.00;;;;;;;;;;4957620;28;20118;-76
2023/10/10 11:45:27;;;;;;;4.82;2.28;;;;;;;;;;4957174;28;20066;-76
2023/10/10 11:47:53;;;;;;;8.25;2.30;;;;;;;;;;4957666;28;20039;-76
2023/10/10 11:50:22;;;;;;;5.85;2.00;;;;;;;;;;4958615;28;20039;-76
2023/10/10 11:52:56;;;;;;;5.95;1.90;;;;;;;;;;4958959;28;20581;-76
2023/10/10 11:55:21;;;;;;;6.70;2.10;;;;;;;;;;4961453;28;20039;-76
2023/10/10 11:57:50;;;;;;;10.15;2.30;;;;;;;;;;4966236;28;20579;-75
2023/10/10 12:00:36;;;;;;;6.00;2.33;;;;;;;;;;4962348;28;20065;-75
2023/10/10 12:03:05;;;;;;;7.88;2.35;;;;;;;;;;4963351;28;20039;-76
2023/10/10 12:07:58;;;;;;;5.17;2.33;;;;;;;;;;4976367;28;20034;-75
2023/10/10 12:10:30;;;;;;;8.73;2.50;;;;;;;;;;4981899;28;20369;-75
2023/10/10 12:12:56;;;;;;;8.27;2.63;;;;;;;;;;4981671;28;20027;-75
2023/10/10 12:15:22;;;;;;;7.68;2.50;;;;;;;;;;4966281;28;20516;-75
2023/10/10 12:17:52;;;;;;;10.07;2.05;;;;;;;;;;4962436;28;20044;-75
2023/10/10 12:20:17;;;;;;;;;;;;;;;;;;4943827;28;20065;-76
2023/10/10 12:22:42;;;;;;;6.85;2.50;;;;;;;;;;4964535;28;20013;-75
2023/10/10 12:25:13;;;;;;;9.83;2.20;;;;;;;;;;4956925;28;20043;-74
2023/10/10 12:27:46;;;;;;;12.27;2.33;;;;;;;;;;4959122;28;20287;-74
2023/10/10 12:30:13;;;;;;;8.38;2.38;;;;;;;;;;4959149;28;20039;-74
2023/10/10 12:32:38;;;;;;;9.20;2.35;;;;;;;;;;4957694;28;20043;-78
2023/10/10 12:35:03;;;;;;;8.43;2.83;;;;;;;;;;4960107;28;20043;-76
2023/10/10 12:37:36;;;;;;;7.00;2.40;;;;;;;;;;4981637;28;20053;-75
2023/10/10 12:40:08;;;;;;;7.18;2.47;;;;;;;;;;4971815;28;20046;-74
2023/10/10 12:42:34;;;;;;;6.72;2.20;;;;;;;;;;4980887;28;20022;-75
2023/10/10 12:45:01;;;;;;;5.97;2.73;;;;;;;;;;4986739;28;20100;-75
2023/10/10 12:47:27;;;;;;;6.50;2.20;;;;;;;;;;4986466;28;20303;-74
2023/10/10 12:49:56;;;;;;;7.05;2.40;;;;;;;;;;4983338;28;20703;-70
2023/10/10 12:52:21;;;;;;;5.57;2.20;;;;;;;;;;4967896;28;20018;-71
2023/10/10 12:54:56;;;;;;;8.60;2.05;;;;;;;;;;4968799;28;20391;-72
2023/10/10 12:57:23;;;;;;;7.18;1.98;;;;;;;;;;4985748;28;20042;-71
2023/10/10 12:59:51;;;;;;;6.90;2.35;;;;;;;;;;4986068;28;20034;-71
2023/10/10 13:02:16;;;;;;;8.18;2.17;;;;;;;;;;4977752;28;20182;-71
2023/10/10 13:04:46;;;;;;;6.28;2.45;;;;;;;;;;4958995;28;22200;-72
2023/10/10 13:07:11;;;;;;;7.45;2.70;;;;;;;;;;4972352;28;20035;-70
2023/10/10 13:09:42;;;;;;;6.57;2.93;;;;;;;;;;4955310;28;20043;-72
2023/10/10 13:12:08;;;;;;;6.55;2.53;;;;;;;;;;4954986;28;20305;-72
2023/10/10 13:14:33;;;;;;;8.90;2.60;;;;;;;;;;4937652;28;20031;-72
2023/10/10 13:17:50;;;;;;;6.68;2.75;;;;;;;;;;4938070;28;20034;-75
2023/10/10 13:19:48;;;;;;;6.10;2.30;;;;;;;;;;4953547;28;20108;-70
2023/10/10 13:22:20;;;;;;;7.68;2.28;;;;;;;;;;4964484;28;20043;-71
2023/10/10 13:24:46;;;;;;;7.28;2.80;;;;;;;;;;4962580;28;20157;-71
2023/10/10 13:27:11;;;;;;;8.07;2.70;;;;;;;;;;4972063;28;21670;-71
2023/10/10 13:29:36;;;;;;;9.50;2.58;;;;;;;;;;4972998;28;20139;-75
2023/10/10 13:32:04;;;;;;;12.17;2.30;;;;;;;;;;4972875;28;20094;-76
2023/10/10 13:34:29;;;;;;;6.90;2.50;;;;;;;;;;4972610;28;20308;-76
2023/10/10 13:36:55;;;;;;;10.17;2.60;;;;;;;;;;4974104;28;20455;-76
2023/10/10 13:39:33;;;;;;;7.03;2.45;;;;;;;;;;4972644;28;20298;-76
2023/10/10 13:41:58;;;;;;;6.13;2.20;;;;;;;;;;4974156;28;20420;-77
2023/10/10 13:44:23;;;;;;;10.18;2.60;;;;;;;;;;4974335;28;20046;-76
2023/10/10 13:46:49;;;;;;;7.20;2.70;;;;;;;;;;4960611;28;20053;-76
2023/10/10 13:49:15;;;;;;;5.03;2.10;;;;;;;;;;4955885;28;20306;-76
2023/10/10 13:51:40;;;;;;;8.30;2.55;;;;;;;;;;4955984;28;20305;-76
2023/10/10 13:54:05;;;;;;;7.00;2.08;;;;;;;;;;4967692;28;20043;-76
2023/10/10 13:56:31;;;;;;;6.68;2.72;;;;;;;;;;4960662;28;20068;-76
2023/10/10 13:58:57;;;;;;;7.23;1.97;;;;;;;;;;4942396;28;20529;-76
2023/10/10 14:04:00;;;;;;;5.20;2.47;;;;;;;;;;4954869;28;20180;-76
2023/10/10 14:06:34;;;;;;;8.77;2.42;;;;;;;;;;4954799;28;20046;-76
2023/10/10 14:09:00;;;;;;;8.45;2.33;;;;;;;;;;4954801;28;20051;-76
2023/10/10 14:11:25;;;;;;;7.63;2.17;;;;;;;;;;4955019;28;20042;-76
2023/10/10 14:13:51;;;;;;;8.40;2.38;;;;;;;;;;4956273;28;20027;-76
2023/10/10 14:16:17;;;;;;;6.35;2.10;;;;;;;;;;4955212;28;20637;-76
2023/10/10 14:18:42;;;;;;;6.70;2.30;;;;;;;;;;4955464;28;20043;-76
2023/10/10 14:21:08;;;;;;;7.25;2.30;;;;;;;;;;4954101;28;20110;-76
2023/10/10 14:23:37;;;;;;;3.60;1.85;;;;;;;;;;4954678;28;20066;-76
2023/10/10 14:26:05;;;;;;;6.93;2.47;;;;;;;;;;4954946;28;20038;-76
2023/10/10 14:28:33;;;;;;;3.65;1.60;;;;;;;;;;4956313;28;20039;-76
2023/10/10 14:30:59;;;;;;;5.38;2.30;;;;;;;;;;4954016;28;20038;-71
2023/10/10 14:33:25;;;;;;;6.87;2.50;;;;;;;;;;4956045;28;20057;-72
2023/10/10 14:35:51;;;;;;;6.75;2.38;;;;;;;;;;4969152;28;20472;-73
2023/10/10 14:38:16;;;;;;;7.82;2.47;;;;;;;;;;4965229;28;20173;-81
2023/10/10 14:40:42;;;;;;;7.93;2.05;;;;;;;;;;4966723;28;20039;-71
2023/10/10 14:43:08;;;;;;;9.05;2.03;;;;;;;;;;4968403;28;20140;-71
2023/10/10 14:45:34;;;;;;;9.23;2.20;;;;;;;;;;4978967;28;20046;-71
2023/10/10 14:48:04;;;;;;;6.50;2.85;;;;;;;;;;4961922;28;20027;-71
2023/10/10 14:50:29;;;;;;;6.95;2.10;;;;;;;;;;4959726;28;20042;-71
2023/10/10 14:52:54;;;;;;;5.40;1.80;;;;;;;;;;4974406;28;20696;-71
2023/10/10 14:55:27;;;;;;;9.40;2.42;;;;;;;;;;4988567;28;20446;-70
2023/10/10 14:57:55;;;;;;;6.13;2.08;;;;;;;;;;4978817;28;20123;-71
2023/10/10 15:00:24;;;;;;;9.95;2.30;;;;;;;;;;4984196;28;20390;-71
2023/10/10 15:02:53;;;;;;;6.05;2.00;;;;;;;;;;4968185;28;20015;-70
2023/10/10 15:05:19;;;;;;;5.10;1.90;;;;;;;;;;4965632;28;20117;-71
2023/10/10 15:07:45;;;;;;;4.63;1.88;;;;;;;;;;4952896;28;20027;-71
2023/10/10 15:10:10;;;;;;;7.43;2.00;;;;;;;;;;4986884;28;20096;-70
2023/10/10 15:12:36;;;;;;;6.10;2.10;;;;;;;;;;4970529;28;20034;-71
2023/10/10 15:15:01;;;;;;;7.57;2.08;;;;;;;;;;4966619;28;20054;-72
2023/10/10 15:17:27;;;;;;;8.10;2.10;;;;;;;;;;4955339;28;20030;-71
2023/10/10 15:19:52;;;;;;;5.20;2.15;;;;;;;;;;4972168;28;20078;-71
2023/10/10 15:22:18;;;;;;;5.22;2.00;;;;;;;;;;4988822;28;20532;-70
2023/10/10 15:24:49;;;;;;;6.97;2.55;;;;;;;;;;4985439;28;20034;-71
2023/10/10 15:27:15;;;;;;;7.25;2.33;;;;;;;;;;4969946;28;20038;-71
2023/10/10 15:29:42;;;;;;;5.95;2.40;;;;;;;;;;4984585;28;20448;-71
2023/10/10 15:32:07;;;;;;;4.53;1.90;;;;;;;;;;4987279;28;20080;-71
2023/10/10 15:34:32;;;;;;;6.10;2.35;;;;;;;;;;4969561;28;20074;-71
2023/10/10 15:37:00;;;;;;;5.60;2.03;;;;;;;;;;4949944;28;20031;-71
2023/10/10 15:39:25;;;;;;;6.45;2.28;;;;;;;;;;4963888;28;20275;-70
2023/10/10 15:41:50;;;;;;;3.40;1.90;;;;;;;;;;4954022;28;20130;-70
2023/10/10 15:44:16;;;;;;;4.88;2.30;;;;;;;;;;4999872;28;20516;-71
2023/10/10 15:46:43;;;;;;;5.15;2.05;;;;;;;;;;4986076;28;20030;-71
2023/10/10 15:49:09;;;;;;;9.48;2.50;;;;;;;;;;4974588;28;20096;-70
2023/10/10 15:51:38;;;;;;;7.20;2.25;;;;;;;;;;4969094;28;20035;-70
2023/10/10 15:54:03;;;;;;;6.95;2.40;;;;;;;;;;4986923;28;20042;-70
2023/10/10 15:56:30;;;;;;;7.97;2.25;;;;;;;;;;4991817;28;20038;-70
2023/10/10 15:58:56;;;;;;;5.22;2.00;;;;;;;;;;4986678;28;20054;-70
2023/10/10 16:01:22;;;;;;;6.65;2.00;;;;;;;;;;4988440;28;20080;-70
2023/10/10 16:03:51;;;;;;;5.38;2.08;;;;;;;;;;4994275;28;20582;-71
2023/10/10 16:06:20;;;;;;;5.60;2.20;;;;;;;;;;4978784;28;20038;-71
2023/10/10 16:08:49;;;;;;;9.38;2.15;;;;;;;;;;4988395;28;20121;-70
2023/10/10 16:11:18;;;;;;;7.80;2.58;;;;;;;;;;4986475;28;20027;-70
2023/10/10 16:13:46;;;;;;;7.72;2.20;;;;;;;;;;4992699;28;20037;-72
2023/10/10 16:16:13;;;;;;;6.07;2.38;;;;;;;;;;4994664;28;20034;-71
2023/10/10 16:18:39;;;;;;;6.75;1.98;;;;;;;;;;4983274;28;20064;-72
2023/10/10 16:21:04;;;;;;;7.63;2.58;;;;;;;;;;4975024;28;20489;-70
2023/10/10 16:23:34;;;;;;;8.15;2.33;;;;;;;;;;4973725;28;20045;-72
2023/10/10 16:26:04;;;;;;;7.75;2.67;;;;;;;;;;4974834;28;20547;-70
2023/10/10 16:28:29;;;;;;;7.28;2.58;;;;;;;;;;4975957;28;20058;-71
2023/10/10 16:30:55;;;;;;;4.80;2.25;;;;;;;;;;4976973;28;20070;-70
2023/10/10 16:33:25;;;;;;;8.38;2.80;;;;;;;;;;4976827;28;20065;-71
2023/10/10 16:35:51;;;;;;;9.25;2.42;;;;;;;;;;4969560;28;20034;-72
2023/10/10 16:38:21;;;;;;;6.95;2.72;;;;;;;;;;4951871;28;20042;-69
2023/10/10 16:40:50;;;;;;;4.80;2.47;;;;;;;;;;4980852;28;20046;-70
2023/10/10 16:43:17;;;;;;;6.07;2.42;;;;;;;;;;4977393;28;20050;-70
2023/10/10 16:45:43;;;;;;;8.90;2.88;;;;;;;;;;4959312;28;20043;-70
2023/10/10 16:48:08;;;;;;;4.70;2.08;;;;;;;;;;4955808;28;20043;-70
2023/10/10 16:50:34;;;;;;;6.05;2.45;;;;;;;;;;4969954;28;20121;-70
2023/10/10 16:52:59;;;;;;;6.32;2.38;;;;;;;;;;4978003;28;20047;-70
2023/10/10 16:55:24;;;;;;;6.57;2.50;;;;;;;;;;4975407;28;20184;-70
2023/10/10 16:57:49;;;;;;;7.20;2.33;;;;;;;;;;4974745;28;20042;-70
2023/10/10 17:00:15;;;;;;;9.75;2.67;;;;;;;;;;4961288;28;20302;-75
2023/10/10 17:02:40;;;;;;;7.15;2.83;;;;;;;;;;4954944;28;20804;-74
2023/10/10 17:05:11;;;;;;;5.00;2.47;;;;;;;;;;4958743;28;20648;-75
2023/10/10 17:07:37;;;;;;;7.10;2.45;;;;;;;;;;4956463;28;20118;-77
2023/10/10 17:10:05;;;;;;;7.43;2.53;;;;;;;;;;4958602;28;20362;-76
2023/10/10 17:12:30;;;;;;;6.53;2.38;;;;;;;;;;4955125;28;20035;-75
2023/10/10 17:14:56;;;;;;;4.07;2.30;;;;;;;;;;4955489;28;20545;-72
2023/10/10 17:17:24;;;;;;;5.43;2.40;;;;;;;;;;4956052;28;20297;-75
2023/10/10 17:19:50;;;;;;;6.20;2.22;;;;;;;;;;4955767;28;20382;-77
2023/10/10 17:22:16;;;;;;;6.47;3.03;;;;;;;;;;4957040;28;20039;-78